Terminal Aerodrome Forecast
Issued by NWS Northern Indiana

Home | Current Version | Previous Version | Text Only | Print | Product List | Glossary Off
Versions: 1 2 3 4 5 6 7 8 9 10 11 12 13 14 15 16 17 18

170
FTUS43 KIWX 242141 AAA
TAFFWA
TAF AMD
KFWA 242141Z 2422/2518 22014G22KT P6SM VCTS SCT050CB BKN150
      TEMPO 2422/2424 24022G35KT 3SM -TSRA BKN035CB
     FM250000 23015G25KT 5SM -SHRA VCTS BKN025CB OVC050
     FM250300 25015KT P6SM OVC025
     FM251200 25020G28KT P6SM OVC025=

USA.gov is the U.S. government's official web portal to all federal, state and local government web resources and services.